createdAt,value
2022-11-26T00:02:30.654Z,8.20
2022-11-26T00:05:00.450Z,7.93
2022-11-26T00:07:31.801Z,7.47
2022-11-26T00:10:02.208Z,7.27
2022-11-26T00:12:34.754Z,9.50
2022-11-26T00:15:15.842Z,10.53
2022-11-26T00:17:44.177Z,10.40
2022-11-26T00:20:13.265Z,10.17
2022-11-26T00:22:44.003Z,9.70
2022-11-26T00:25:19.183Z,11.50
2022-11-26T00:27:50.198Z,9.63
2022-11-26T00:30:21.552Z,8.23
2022-11-26T00:32:50.394Z,8.60
2022-11-26T00:35:19.942Z,8.43
2022-11-26T00:37:51.786Z,8.73
2022-11-26T00:40:23.782Z,10.07
2022-11-26T00:43:00.056Z,8.30
2022-11-26T00:45:32.075Z,6.53
2022-11-26T00:48:01.775Z,11.00
2022-11-26T00:50:34.717Z,8.17
2022-11-26T00:53:04.099Z,8.90
2022-11-26T00:55:35.591Z,11.63
2022-11-26T00:58:06.235Z,9.23
2022-11-26T01:00:36.328Z,8.10
2022-11-26T01:03:04.865Z,10.83
2022-11-26T01:05:33.605Z,9.47
2022-11-26T01:08:07.919Z,8.80
2022-11-26T01:10:37.044Z,9.93
2022-11-26T01:13:12.131Z,11.53
2022-11-26T01:15:41.433Z,8.70
2022-11-26T01:18:14.849Z,10.37
2022-11-26T01:20:44.276Z,6.77
2022-11-26T01:23:15.180Z,7.80
2022-11-26T01:25:44.116Z,7.50
2022-11-26T01:28:19.495Z,9.03
2022-11-26T01:30:49.336Z,10.03
2022-11-26T01:33:17.746Z,8.40
2022-11-26T01:35:46.246Z,10.57
2022-11-26T01:38:16.213Z,10.47
2022-11-26T01:41:06.389Z,10.53
2022-11-26T01:43:40.872Z,8.40
2022-11-26T01:46:16.403Z,11.47
2022-11-26T01:48:45.539Z,7.73
2022-11-26T01:51:17.440Z,7.07
2022-11-26T01:53:50.995Z,8.20
2022-11-26T01:56:31.712Z,7.00
2022-11-26T01:59:07.456Z,11.30
2022-11-26T02:01:36.470Z,8.73
2022-11-26T02:04:14.223Z,7.37
2022-11-26T02:06:45.022Z,7.60
2022-11-26T02:09:14.466Z,8.23
2022-11-26T02:11:46.187Z,5.80
2022-11-26T02:14:21.529Z,9.10
2022-11-26T02:17:17.569Z,6.80
2022-11-26T02:20:33.734Z,8.13
2022-11-26T02:23:35.838Z,6.87
2022-11-26T02:26:48.840Z,6.90
2022-11-26T02:29:24.940Z,7.40
2022-11-26T02:32:00.860Z,8.10
2022-11-26T02:34:37.943Z,9.13
2022-11-26T02:37:11.724Z,8.53
2022-11-26T02:39:40.242Z,7.00
2022-11-26T02:42:24.463Z,7.73
2022-11-26T02:44:53.962Z,6.27
2022-11-26T02:47:27.600Z,6.77
2022-11-26T02:49:58.159Z,7.90
2022-11-26T02:52:28.957Z,9.77
2022-11-26T02:54:58.221Z,11.93
2022-11-26T02:57:31.581Z,6.30
2022-11-26T03:00:00.197Z,10.77
2022-11-26T03:02:34.409Z,9.60
2022-11-26T03:05:04.409Z,9.67
2022-11-26T03:07:35.511Z,11.37
2022-11-26T03:10:06.103Z,8.63
2022-11-26T03:12:34.552Z,7.43
2022-11-26T03:15:03.377Z,9.10
2022-11-26T03:17:33.356Z,8.37
2022-11-26T03:20:03.710Z,8.00
2022-11-26T03:22:32.165Z,9.90
2022-11-26T03:25:00.606Z,7.57
2022-11-26T03:27:29.039Z,7.77
2022-11-26T03:29:57.546Z,8.60
2022-11-26T03:32:26.296Z,7.93
2022-11-26T03:34:56.092Z,9.07
2022-11-26T03:37:24.463Z,8.70
2022-11-26T03:39:52.759Z,7.57
2022-11-26T03:42:21.099Z,8.90
2022-11-26T03:44:49.591Z,9.67
2022-11-26T03:47:18.137Z,10.03
2022-11-26T03:49:46.585Z,7.60
2022-11-26T03:52:16.339Z,10.23
2022-11-26T03:54:44.663Z,10.37
2022-11-26T03:57:13.266Z,10.33
2022-11-26T03:59:41.660Z,11.70
2022-11-26T04:02:10.152Z,9.90
2022-11-26T04:04:38.760Z,9.23
2022-11-26T04:07:07.617Z,12.27
2022-11-26T04:09:37.555Z,11.17
2022-11-26T04:12:06.175Z,9.40
2022-11-26T04:14:34.666Z,11.17
2022-11-26T04:17:03.075Z,9.13
2022-11-26T04:19:31.734Z,11.20
2022-11-26T04:22:00.155Z,10.50
2022-11-26T04:24:28.648Z,11.97
2022-11-26T04:26:58.349Z,11.87
2022-11-26T04:29:26.909Z,10.00
2022-11-26T04:31:55.305Z,11.17
2022-11-26T04:34:24.168Z,10.33
2022-11-26T04:36:52.448Z,10.30
2022-11-26T04:39:21.012Z,13.30
2022-11-26T04:41:49.510Z,11.70
2022-11-26T04:44:19.130Z,9.70
2022-11-26T04:46:47.462Z,12.90
2022-11-26T04:49:15.892Z,12.73
2022-11-26T04:51:44.223Z,11.43
2022-11-26T04:54:13.395Z,10.30
2022-11-26T04:56:42.028Z,12.87
2022-11-26T04:59:10.565Z,12.53
2022-11-26T05:01:40.310Z,9.73
2022-11-26T05:04:08.873Z,12.13
2022-11-26T05:06:37.131Z,9.23
2022-11-26T05:09:05.414Z,11.17
2022-11-26T05:11:35.564Z,13.00
2022-11-26T05:14:04.267Z,13.67
2022-11-26T05:16:32.772Z,12.97
2022-11-26T05:19:02.517Z,12.17
2022-11-26T05:21:31.210Z,15.43
2022-11-26T05:23:59.487Z,13.83
2022-11-26T05:26:27.835Z,13.43
2022-11-26T05:28:56.065Z,11.90
2022-11-26T05:31:24.414Z,14.27
2022-11-26T05:33:53.004Z,15.37
2022-11-26T05:36:22.977Z,13.30
2022-11-26T05:38:51.253Z,16.80
2022-11-26T05:41:19.713Z,19.80
2022-11-26T05:43:48.095Z,18.00
2022-11-26T05:46:19.135Z,17.30
2022-11-26T05:48:47.645Z,15.77
2022-11-26T05:51:16.172Z,18.33
2022-11-26T05:53:45.925Z,14.17
2022-11-26T05:56:14.223Z,15.93
2022-11-26T05:58:44.256Z,17.03
2022-11-26T06:01:12.723Z,13.43
2022-11-26T06:03:41.980Z,15.27
2022-11-26T06:06:10.712Z,12.57
2022-11-26T06:08:39.050Z,13.00
2022-11-26T06:11:11.382Z,14.17
2022-11-26T06:13:39.899Z,16.47
2022-11-26T06:16:10.589Z,13.93
2022-11-26T06:18:39.896Z,15.83
2022-11-26T06:21:09.759Z,14.33
2022-11-26T06:23:38.708Z,14.83
2022-11-26T06:26:13.895Z,16.37
2022-11-26T06:28:42.509Z,14.07
2022-11-26T06:31:11.238Z,16.17
2022-11-26T06:33:39.887Z,16.63
2022-11-26T06:36:08.795Z,17.00
2022-11-26T06:38:37.286Z,19.50
2022-11-26T06:41:07.760Z,17.77
2022-11-26T06:43:37.731Z,16.03
2022-11-26T06:46:09.106Z,18.13
2022-11-26T06:48:39.320Z,18.93
2022-11-26T06:51:09.421Z,14.00
2022-11-26T06:53:37.733Z,23.30
2022-11-26T06:56:08.372Z,15.93
2022-11-26T06:58:38.715Z,20.00
2022-11-26T07:01:11.118Z,22.50
2022-11-26T07:03:40.138Z,14.33
2022-11-26T07:06:17.233Z,21.20
2022-11-26T07:08:45.882Z,15.33
2022-11-26T07:11:15.522Z,14.73
2022-11-26T07:13:45.535Z,12.77
2022-11-26T07:16:14.675Z,11.57
2022-11-26T07:18:44.151Z,14.93
2022-11-26T07:21:14.333Z,14.27
2022-11-26T07:23:42.913Z,14.73
2022-11-26T07:26:13.435Z,14.97
2022-11-26T07:28:42.634Z,17.47
2022-11-26T07:31:16.926Z,13.73
2022-11-26T07:33:47.332Z,13.07
2022-11-26T07:36:18.362Z,11.90
2022-11-26T07:38:46.946Z,15.20
2022-11-26T07:41:17.600Z,13.13
2022-11-26T07:43:47.383Z,18.07
2022-11-26T07:46:22.018Z,16.63
2022-11-26T07:48:50.934Z,19.67
2022-11-26T07:51:22.013Z,14.00
2022-11-26T07:53:51.445Z,15.43
2022-11-26T07:56:20.845Z,14.73
2022-11-26T07:58:49.394Z,11.80
2022-11-26T08:01:21.658Z,12.50
2022-11-26T08:03:52.281Z,15.30
2022-11-26T08:06:23.063Z,12.57
2022-11-26T08:08:52.011Z,15.10
2022-11-26T08:11:24.155Z,13.93
2022-11-26T08:13:55.450Z,12.63
2022-11-26T08:16:28.697Z,14.20
2022-11-26T08:18:58.996Z,10.73
2022-11-26T08:21:32.141Z,9.03
2022-11-26T08:24:03.612Z,12.73
2022-11-26T08:26:37.115Z,15.07
2022-11-26T08:29:08.087Z,16.13
2022-11-26T08:31:45.251Z,12.67
2022-11-26T08:34:16.280Z,13.17
2022-11-26T08:36:45.516Z,15.37
2022-11-26T08:39:14.567Z,14.57
2022-11-26T08:41:46.178Z,12.13
2022-11-26T08:44:19.562Z,22.07
2022-11-26T08:46:49.979Z,12.40
2022-11-26T08:49:18.750Z,13.93
2022-11-26T08:51:47.055Z,12.80
2022-11-26T08:54:15.399Z,12.93
2022-11-26T08:56:43.858Z,12.97
2022-11-26T08:59:12.227Z,10.80
2022-11-26T09:01:40.972Z,13.80
2022-11-26T09:04:10.791Z,12.73
2022-11-26T09:06:40.914Z,11.70
2022-11-26T09:09:18.016Z,14.43
2022-11-26T09:11:50.716Z,10.97
2022-11-26T09:14:21.068Z,10.20
2022-11-26T09:16:50.409Z,11.07
2022-11-26T09:19:20.658Z,9.10
2022-11-26T09:21:49.324Z,10.77
2022-11-26T09:24:18.222Z,13.40
2022-11-26T09:26:48.550Z,12.23
2022-11-26T09:29:18.503Z,9.83
2022-11-26T09:34:38.648Z,14.83
2022-11-26T09:37:07.389Z,11.17
2022-11-26T09:39:35.739Z,11.50
2022-11-26T09:42:07.876Z,11.97
2022-11-26T09:45:03.022Z,10.57
2022-11-26T09:47:38.447Z,12.90
2022-11-26T09:50:21.460Z,14.37
2022-11-26T09:52:54.948Z,10.77
2022-11-26T09:55:27.040Z,12.37
2022-11-26T09:58:03.703Z,11.67
2022-11-26T10:00:34.563Z,10.73
2022-11-26T10:03:03.312Z,11.87
2022-11-26T10:05:51.046Z,13.47
2022-11-26T10:08:49.380Z,14.00
2022-11-26T10:11:26.539Z,14.20
2022-11-26T10:14:05.078Z,12.73
2022-11-26T10:16:43.949Z,14.90
2022-11-26T10:19:21.611Z,15.17
2022-11-26T10:21:58.991Z,12.87
2022-11-26T10:24:32.568Z,11.57
2022-11-26T10:27:06.444Z,12.47
2022-11-26T10:29:40.606Z,56.00
2022-11-26T10:32:16.490Z,17.10
2022-11-26T10:34:51.715Z,18.70
2022-11-26T10:37:23.282Z,17.73
2022-11-26T10:40:01.029Z,24.23
2022-11-26T10:42:41.742Z,24.63
2022-11-26T10:45:19.567Z,28.33
2022-11-26T10:47:49.824Z,21.20
2022-11-26T10:50:46.740Z,13.40
2022-11-26T10:53:22.913Z,10.90
2022-11-26T10:55:53.326Z,11.47
2022-11-26T10:58:27.885Z,9.30
2022-11-26T11:01:02.424Z,12.27
2022-11-26T11:04:06.879Z,7.83
2022-11-26T11:06:38.328Z,12.30
2022-11-26T11:09:26.882Z,10.43
2022-11-26T11:12:23.905Z,7.60
2022-11-26T11:14:52.765Z,8.40
2022-11-26T11:17:31.939Z,8.00
2022-11-26T11:20:10.432Z,10.17
2022-11-26T11:22:39.008Z,9.23
2022-11-26T11:25:23.677Z,8.20
2022-11-26T11:27:53.153Z,9.57
2022-11-26T11:30:28.717Z,11.43
2022-11-26T11:33:00.399Z,10.67
2022-11-26T11:35:31.045Z,8.87
2022-11-26T11:37:59.975Z,7.97
2022-11-26T11:40:33.349Z,9.80
2022-11-26T11:43:04.425Z,8.20
2022-11-26T11:45:35.455Z,10.17
2022-11-26T11:48:15.974Z,11.80
2022-11-26T11:50:50.152Z,8.23
2022-11-26T11:53:34.410Z,16.07
2022-11-26T11:56:27.787Z,8.63
2022-11-26T11:59:25.472Z,12.27
2022-11-26T12:02:17.897Z,13.70
2022-11-26T12:04:58.210Z,8.90
2022-11-26T12:07:42.794Z,9.17
2022-11-26T12:10:15.796Z,9.67
2022-11-26T12:12:48.828Z,6.33
2022-11-26T12:15:24.546Z,8.53
2022-11-26T12:18:00.745Z,10.17
2022-11-26T12:20:33.153Z,11.73
2022-11-26T12:23:16.030Z,8.97
2022-11-26T12:25:50.838Z,9.03
2022-11-26T12:28:25.418Z,8.27
2022-11-26T12:31:01.653Z,8.20
2022-11-26T12:33:35.529Z,10.10
2022-11-26T12:36:13.820Z,11.00
2022-11-26T12:38:47.581Z,7.83
2022-11-26T12:41:20.324Z,6.17
2022-11-26T12:43:54.212Z,6.00
2022-11-26T12:46:27.679Z,7.17
2022-11-26T12:49:04.615Z,7.67
2022-11-26T12:51:39.821Z,10.27
2022-11-26T12:54:17.192Z,8.33
2022-11-26T12:56:56.800Z,8.50
2022-11-26T12:59:30.715Z,7.60
2022-11-26T13:01:59.342Z,6.20
2022-11-26T13:04:37.529Z,10.97
2022-11-26T13:07:15.375Z,8.63
2022-11-26T13:09:59.274Z,6.50
2022-11-26T13:12:38.671Z,6.17
2022-11-26T13:15:19.173Z,6.23
2022-11-26T13:17:51.671Z,5.43
2022-11-26T13:20:52.039Z,10.93
2022-11-26T13:23:38.161Z,9.73
2022-11-26T13:26:17.533Z,8.10
2022-11-26T13:29:05.340Z,10.13
2022-11-26T13:31:53.102Z,9.13
2022-11-26T13:34:36.746Z,6.73
2022-11-26T13:37:21.527Z,6.73
2022-11-26T13:40:31.870Z,6.90
2022-11-26T13:43:27.973Z,10.50
2022-11-26T13:46:10.701Z,10.40
2022-11-26T13:48:48.922Z,7.77
2022-11-26T13:51:25.577Z,7.33
2022-11-26T13:54:02.022Z,8.63
2022-11-26T13:56:35.094Z,9.10
2022-11-26T13:59:07.269Z,5.10
2022-11-26T14:01:40.320Z,7.33
2022-11-26T14:04:11.808Z,7.00
2022-11-26T14:07:00.791Z,6.93
2022-11-26T14:09:51.437Z,5.93
2022-11-26T14:12:21.869Z,10.60
2022-11-26T14:14:50.845Z,8.57
2022-11-26T14:17:21.586Z,6.60
2022-11-26T14:20:11.451Z,7.27
2022-11-26T14:22:40.683Z,9.43
2022-11-26T14:25:14.114Z,26.50
2022-11-26T14:27:49.697Z,13.00
2022-11-26T14:30:23.150Z,20.87
2022-11-26T14:33:09.506Z,15.77
2022-11-26T14:35:40.204Z,14.23
2022-11-26T14:38:25.224Z,15.57
2022-11-26T14:41:01.215Z,10.07
2022-11-26T14:43:30.184Z,11.03
2022-11-26T14:46:05.129Z,8.73
2022-11-26T14:48:36.472Z,9.03
2022-11-26T14:51:09.384Z,9.83
2022-11-26T14:53:46.262Z,7.93
2022-11-26T14:56:14.732Z,7.03
2022-11-26T14:58:54.178Z,10.90
2022-11-26T15:01:24.622Z,10.43
2022-11-26T15:03:58.862Z,9.57
2022-11-26T15:06:34.875Z,8.57
2022-11-26T15:09:15.189Z,8.27
2022-11-26T15:11:50.921Z,8.87
2022-11-26T15:14:25.942Z,10.37
2022-11-26T15:17:02.619Z,13.30
2022-11-26T15:19:37.730Z,12.50
2022-11-26T15:22:19.041Z,10.33
2022-11-26T15:24:51.086Z,9.20
2022-11-26T15:27:31.130Z,7.33
2022-11-26T15:29:59.645Z,8.13
2022-11-26T15:32:30.400Z,9.73
2022-11-26T15:35:02.089Z,8.70
2022-11-26T15:37:31.964Z,8.07
2022-11-26T15:40:14.981Z,8.67
2022-11-26T15:42:43.445Z,9.30
2022-11-26T15:45:17.281Z,10.87
2022-11-26T15:47:48.947Z,9.43
2022-11-26T15:50:25.986Z,7.70
2022-11-26T15:53:00.593Z,9.43
2022-11-26T15:55:33.403Z,8.60
2022-11-26T15:58:06.169Z,9.77
2022-11-26T16:00:39.794Z,10.90
2022-11-26T16:03:37.544Z,12.17
2022-11-26T16:06:08.641Z,11.07
2022-11-26T16:08:42.997Z,10.33
2022-11-26T16:11:23.663Z,7.67
2022-11-26T16:13:52.151Z,14.90
2022-11-26T16:16:22.792Z,14.03
2022-11-26T16:18:55.026Z,13.27
2022-11-26T16:21:28.907Z,13.37
2022-11-26T16:24:01.521Z,10.03
2022-11-26T16:26:30.418Z,21.67
2022-11-26T16:28:58.908Z,15.20
2022-11-26T16:31:27.298Z,14.03
2022-11-26T16:33:56.634Z,15.23
2022-11-26T16:36:29.518Z,9.27
2022-11-26T16:38:59.836Z,12.00
2022-11-26T16:41:28.403Z,10.93
2022-11-26T16:43:58.588Z,10.30
2022-11-26T16:46:30.194Z,15.10
2022-11-26T16:48:59.330Z,12.33
2022-11-26T16:51:28.016Z,11.07
2022-11-26T16:53:56.712Z,10.13
2022-11-26T16:56:29.475Z,12.73
2022-11-26T16:59:00.086Z,11.63
2022-11-26T17:01:29.953Z,10.50
2022-11-26T17:04:03.223Z,11.50
2022-11-26T17:06:33.918Z,13.43
2022-11-26T17:09:05.596Z,12.53
2022-11-26T17:11:36.843Z,11.60
2022-11-26T17:14:05.307Z,14.97
2022-11-26T17:16:34.725Z,9.43
2022-11-26T17:19:08.748Z,12.10
2022-11-26T17:21:37.138Z,14.53
2022-11-26T17:24:05.954Z,13.20
2022-11-26T17:26:36.183Z,12.80
2022-11-26T17:29:05.204Z,12.23
2022-11-26T17:31:33.606Z,10.80
2022-11-26T17:34:02.078Z,13.53
2022-11-26T17:36:36.617Z,13.93
2022-11-26T17:39:05.691Z,13.10
2022-11-26T17:41:40.694Z,15.50
2022-11-26T17:44:09.649Z,15.47
2022-11-26T17:46:54.518Z,14.83
2022-11-26T17:49:26.992Z,16.43
2022-11-26T17:51:57.938Z,12.60
2022-11-26T17:54:26.667Z,12.47
2022-11-26T17:57:01.258Z,11.77
2022-11-26T17:59:30.260Z,14.00
2022-11-26T18:01:58.944Z,9.77
2022-11-26T18:04:28.119Z,15.07
2022-11-26T18:07:03.986Z,13.63
2022-11-26T18:09:32.970Z,11.27
2022-11-26T18:12:03.829Z,15.07
2022-11-26T18:14:35.661Z,16.10
2022-11-26T18:17:05.420Z,10.87
2022-11-26T18:19:33.937Z,11.00
2022-11-26T18:22:02.758Z,9.97
2022-11-26T18:24:32.207Z,13.20
2022-11-26T18:27:02.560Z,11.37
2022-11-26T18:29:31.493Z,13.90
2022-11-26T18:32:00.520Z,13.77
2022-11-26T18:34:29.004Z,11.87
2022-11-26T18:36:57.493Z,10.47
2022-11-26T18:39:26.008Z,13.87
2022-11-26T18:42:00.708Z,12.00
2022-11-26T18:44:34.831Z,10.87
2022-11-26T18:47:09.132Z,13.17
2022-11-26T18:49:42.205Z,12.63
2022-11-26T18:52:13.108Z,9.63
2022-11-26T18:54:41.561Z,10.30
2022-11-26T18:57:10.127Z,11.03
2022-11-26T18:59:40.241Z,9.53
2022-11-26T19:02:10.149Z,15.30
2022-11-26T19:04:39.296Z,12.10
2022-11-26T19:07:07.569Z,13.40
2022-11-26T19:09:36.320Z,14.33
2022-11-26T19:12:04.909Z,14.67
2022-11-26T19:14:35.027Z,17.47
2022-11-26T19:17:04.673Z,15.37
2022-11-26T19:19:33.155Z,14.33
2022-11-26T19:22:02.070Z,12.67
2022-11-26T19:24:31.487Z,15.63
2022-11-26T19:26:59.891Z,12.70
2022-11-26T19:29:28.710Z,12.60
2022-11-26T19:31:57.096Z,12.93
2022-11-26T19:34:26.964Z,10.90
2022-11-26T19:36:57.724Z,11.03
2022-11-26T19:39:26.320Z,14.03
2022-11-26T19:41:55.297Z,14.40
2022-11-26T19:44:24.062Z,12.73
2022-11-26T19:46:52.554Z,13.17
2022-11-26T19:49:21.099Z,11.77
2022-11-26T19:51:50.836Z,13.90
2022-11-26T19:54:19.449Z,17.17
2022-11-26T19:56:48.649Z,11.63
2022-11-26T19:59:19.708Z,11.77
2022-11-26T20:01:49.238Z,12.63
2022-11-26T20:04:19.533Z,12.57
2022-11-26T20:06:48.592Z,11.53
2022-11-26T20:09:18.184Z,15.93
2022-11-26T20:11:47.503Z,11.73
2022-11-26T20:14:16.466Z,12.80
2022-11-26T20:16:46.043Z,12.57
2022-11-26T20:19:15.327Z,14.43
2022-11-26T20:21:43.707Z,15.17
2022-11-26T20:24:15.842Z,16.13
2022-11-26T20:26:48.583Z,14.83
2022-11-26T20:29:18.333Z,15.50
2022-11-26T20:31:51.715Z,11.90
2022-11-26T20:34:22.053Z,13.70
2022-11-26T20:36:51.021Z,12.37
2022-11-26T20:39:21.732Z,11.17
2022-11-26T20:41:51.972Z,11.80
2022-11-26T20:44:20.563Z,13.07
2022-11-26T20:46:49.007Z,15.23
2022-11-26T20:49:17.596Z,13.70
2022-11-26T20:51:46.143Z,17.37
2022-11-26T20:54:14.831Z,14.03
2022-11-26T20:56:45.692Z,17.37
2022-11-26T20:59:15.563Z,19.33
2022-11-26T21:01:44.350Z,19.27
2022-11-26T21:04:13.009Z,14.67
2022-11-26T21:06:43.664Z,16.73
2022-11-26T21:09:14.629Z,15.23
2022-11-26T21:11:44.368Z,21.67
2022-11-26T21:14:15.160Z,18.07
2022-11-26T21:16:45.676Z,15.40
2022-11-26T21:19:14.647Z,16.23
2022-11-26T21:21:43.491Z,18.73
2022-11-26T21:24:11.988Z,18.83
2022-11-26T21:26:41.364Z,18.07
2022-11-26T21:29:09.955Z,19.83
2022-11-26T21:31:38.859Z,20.90
2022-11-26T21:34:11.620Z,19.83
2022-11-26T21:36:42.693Z,80.43
2022-11-26T21:39:15.500Z,37.27
2022-11-26T21:41:44.139Z,37.03
2022-11-26T21:44:13.247Z,38.60
2022-11-26T21:46:41.854Z,26.73
2022-11-26T21:49:11.705Z,24.93
2022-11-26T21:51:40.923Z,23.93
2022-11-26T21:54:10.350Z,21.10
2022-11-26T21:56:38.782Z,23.97
2022-11-26T21:59:07.508Z,21.73
2022-11-26T22:01:38.099Z,22.43
2022-11-26T22:04:09.929Z,22.63
2022-11-26T22:06:40.238Z,17.70
2022-11-26T22:09:09.753Z,16.50
2022-11-26T22:11:41.266Z,20.07
2022-11-26T22:14:11.437Z,15.97
2022-11-26T22:16:41.799Z,14.70
2022-11-26T22:19:11.943Z,13.97
2022-11-26T22:21:43.109Z,14.50
2022-11-26T22:24:15.416Z,15.67
2022-11-26T22:26:44.915Z,15.77
2022-11-26T22:29:14.762Z,16.37
2022-11-26T22:31:44.389Z,13.63
2022-11-26T22:34:15.823Z,15.23
2022-11-26T22:36:46.803Z,13.97
2022-11-26T22:39:17.377Z,16.70
2022-11-26T22:41:52.666Z,14.80
2022-11-26T22:44:21.337Z,15.47
2022-11-26T22:46:49.688Z,13.77
2022-11-26T22:49:19.065Z,13.50
2022-11-26T22:51:49.138Z,12.60
2022-11-26T22:54:18.362Z,11.27
2022-11-26T22:56:46.882Z,12.27
2022-11-26T22:59:16.088Z,11.53
2022-11-26T23:01:44.590Z,10.10
2022-11-26T23:04:13.188Z,11.63
2022-11-26T23:06:42.110Z,11.73
2022-11-26T23:09:13.424Z,12.97
2022-11-26T23:11:45.014Z,15.40
2022-11-26T23:14:13.734Z,13.87
2022-11-26T23:16:43.936Z,11.33
2022-11-26T23:19:15.513Z,12.93
2022-11-26T23:21:47.102Z,13.20
2022-11-26T23:24:17.774Z,14.87
2022-11-26T23:26:47.969Z,14.70
2022-11-26T23:29:17.249Z,13.90
2022-11-26T23:31:46.219Z,11.17
2022-11-26T23:34:15.599Z,14.63
2022-11-26T23:36:44.731Z,13.53
2022-11-26T23:39:14.370Z,15.33
2022-11-26T23:41:44.679Z,13.53
2022-11-26T23:44:13.248Z,13.83
2022-11-26T23:46:41.788Z,12.77
2022-11-26T23:49:10.496Z,11.67
2022-11-26T23:51:38.903Z,13.67
2022-11-26T23:54:07.578Z,11.73
2022-11-26T23:56:36.742Z,12.23
2022-11-26T23:59:06.823Z,13.43
